createdAt,value
2018-11-02T00:00:24.052Z,1002.13
2018-11-02T00:01:29.529Z,1002.16
2018-11-02T00:02:35.050Z,1002.19
2018-11-02T00:03:40.555Z,1002.21
2018-11-02T00:04:46.073Z,1002.22
2018-11-02T00:05:51.579Z,1002.28
2018-11-02T00:06:57.093Z,1002.26
2018-11-02T00:08:02.604Z,1002.24
2018-11-02T00:09:08.114Z,1002.25
2018-11-02T00:10:13.620Z,1002.31
2018-11-02T00:11:19.140Z,1002.32
2018-11-02T00:12:24.692Z,1002.31
2018-11-02T00:13:30.156Z,1002.33
2018-11-02T00:14:35.672Z,1002.33
2018-11-02T00:15:41.177Z,1002.32
2018-11-02T00:16:46.685Z,1002.33
2018-11-02T00:17:52.203Z,1002.39
2018-11-02T00:18:57.707Z,1002.40
2018-11-02T00:20:03.219Z,1002.37
2018-11-02T00:21:08.736Z,1002.37
2018-11-02T00:22:14.255Z,1002.40
2018-11-02T00:23:19.764Z,1002.44
2018-11-02T00:24:25.275Z,1002.45
2018-11-02T00:25:30.777Z,1002.43
2018-11-02T00:26:36.294Z,1002.45
2018-11-02T00:27:41.808Z,1002.42
2018-11-02T00:28:47.313Z,1002.53
2018-11-02T00:29:52.828Z,1002.46
2018-11-02T00:30:58.335Z,1002.51
2018-11-02T00:32:03.925Z,1002.53
2018-11-02T00:33:09.352Z,1002.58
2018-11-02T00:34:14.867Z,1002.62
2018-11-02T00:35:20.378Z,1002.57
2018-11-02T00:36:25.893Z,1002.60
2018-11-02T00:37:31.401Z,1002.63
2018-11-02T00:38:36.913Z,1002.68
2018-11-02T00:39:42.428Z,1002.67
2018-11-02T00:40:47.935Z,1002.69
2018-11-02T00:41:53.445Z,1002.74
2018-11-02T00:42:58.959Z,1002.75
2018-11-02T00:44:04.544Z,1002.76
2018-11-02T00:45:09.984Z,1002.77
2018-11-02T00:46:15.495Z,1002.78
2018-11-02T00:47:21.010Z,1002.78
2018-11-02T00:48:26.515Z,1002.85
2018-11-02T00:49:32.031Z,1002.87
2018-11-02T00:50:37.554Z,1002.82
2018-11-02T00:51:43.048Z,1002.79
2018-11-02T00:52:48.559Z,1002.82
2018-11-02T00:53:54.072Z,1002.78
2018-11-02T00:54:59.580Z,1002.77
2018-11-02T00:56:05.100Z,1002.76
2018-11-02T00:57:10.609Z,1002.68
2018-11-02T00:58:16.116Z,1002.72
2018-11-02T00:59:21.629Z,1002.55
2018-11-02T01:00:27.138Z,1002.45
2018-11-02T01:01:32.646Z,1002.37
2018-11-02T01:02:38.159Z,1002.38
2018-11-02T01:03:43.673Z,1002.35
2018-11-02T01:04:49.238Z,1002.34
2018-11-02T01:05:54.695Z,1002.34
2018-11-02T01:07:00.204Z,1002.27
2018-11-02T01:08:05.726Z,1002.27
2018-11-02T01:09:11.230Z,1002.30
2018-11-02T01:10:16.739Z,1002.27
2018-11-02T01:11:22.264Z,1002.35
2018-11-02T01:12:27.770Z,1002.41
2018-11-02T01:13:33.272Z,1002.35
2018-11-02T01:14:38.782Z,1002.38
2018-11-02T01:15:44.306Z,1002.42
2018-11-02T01:16:49.873Z,1002.47
2018-11-02T01:17:55.318Z,1002.48
2018-11-02T01:19:00.828Z,1002.56
2018-11-02T01:20:06.349Z,1002.60
2018-11-02T01:21:11.853Z,1002.64
2018-11-02T01:22:17.365Z,1002.68
2018-11-02T01:23:22.872Z,1002.72
2018-11-02T01:24:28.394Z,1002.79
2018-11-02T01:25:33.897Z,1002.86
2018-11-02T01:26:39.409Z,1002.92
2018-11-02T01:27:44.918Z,1002.87
2018-11-02T01:28:50.428Z,1002.91
2018-11-02T01:29:55.946Z,1002.96
2018-11-02T01:31:01.456Z,1002.99
2018-11-02T01:32:06.962Z,1003.05
2018-11-02T01:33:12.475Z,1003.05
2018-11-02T01:34:17.989Z,1003.03
2018-11-02T01:35:23.526Z,1003.08
2018-11-02T01:36:29.010Z,1003.06
2018-11-02T01:37:34.523Z,1002.99
2018-11-02T01:38:40.029Z,1003.03
2018-11-02T01:39:45.540Z,1003.05
2018-11-02T01:40:51.052Z,1003.05
2018-11-02T01:41:56.569Z,1003.08
2018-11-02T01:43:02.076Z,1003.04
2018-11-02T01:44:07.596Z,1003.07
2018-11-02T01:45:13.099Z,1003.06
2018-11-02T01:46:18.608Z,1003.07
2018-11-02T01:47:24.129Z,1003.07
2018-11-02T01:48:29.630Z,1003.08
2018-11-02T01:49:35.143Z,1003.13
2018-11-02T01:50:40.660Z,1003.10
2018-11-02T01:51:46.165Z,1003.10
2018-11-02T01:52:51.673Z,1003.13
2018-11-02T01:53:57.193Z,1003.12
2018-11-02T01:55:02.698Z,1003.12
2018-11-02T01:56:08.212Z,1003.12
2018-11-02T01:57:13.719Z,1003.14
2018-11-02T01:58:19.246Z,1003.15
2018-11-02T01:59:24.740Z,1003.17
2018-11-02T02:00:30.254Z,1003.18
2018-11-02T02:01:35.762Z,1003.19
2018-11-02T02:02:41.269Z,1003.19
2018-11-02T02:03:46.784Z,1003.24
2018-11-02T02:04:52.296Z,1003.22
2018-11-02T02:05:57.810Z,1003.23
2018-11-02T02:07:03.318Z,1003.27
2018-11-02T02:08:08.833Z,1003.30
2018-11-02T02:09:14.341Z,1003.33
2018-11-02T02:10:19.851Z,1003.35
2018-11-02T02:11:25.362Z,1003.41
2018-11-02T02:12:30.875Z,1003.37
2018-11-02T02:13:36.381Z,1003.41
2018-11-02T02:14:41.897Z,1003.41
2018-11-02T02:15:47.406Z,1003.41
2018-11-02T02:16:52.916Z,1003.49
2018-11-02T02:17:58.437Z,1003.48
2018-11-02T02:19:03.940Z,1003.44
2018-11-02T02:20:09.447Z,1003.44
2018-11-02T02:21:14.957Z,1003.46
2018-11-02T02:22:20.467Z,1003.50
2018-11-02T02:23:25.986Z,1003.47
2018-11-02T02:24:31.493Z,1003.49
2018-11-02T02:25:37.006Z,1003.53
2018-11-02T02:26:42.515Z,1003.54
2018-11-02T02:27:48.060Z,1003.59
2018-11-02T02:28:53.539Z,1003.64
2018-11-02T02:29:59.045Z,1003.68
2018-11-02T02:31:04.558Z,1003.69
2018-11-02T02:32:10.068Z,1003.69
2018-11-02T02:33:15.584Z,1003.74
2018-11-02T02:34:21.096Z,1003.71
2018-11-02T02:35:26.612Z,1003.76
2018-11-02T02:36:32.112Z,1003.76
2018-11-02T02:37:37.623Z,1003.74
2018-11-02T02:38:43.135Z,1003.80
2018-11-02T02:39:48.646Z,1003.76
2018-11-02T02:40:54.159Z,1003.76
2018-11-02T02:41:59.675Z,1003.79
2018-11-02T02:43:05.180Z,1003.79
2018-11-02T02:44:10.692Z,1003.79
2018-11-02T02:45:16.208Z,1003.79
2018-11-02T02:46:21.710Z,1003.81
2018-11-02T02:47:27.225Z,1003.80
2018-11-02T02:48:32.731Z,1003.81
2018-11-02T02:49:38.269Z,1003.86
2018-11-02T02:50:43.755Z,1003.86
2018-11-02T02:51:49.304Z,1003.86
2018-11-02T02:52:54.775Z,1003.84
2018-11-02T02:54:00.287Z,1003.87
2018-11-02T02:55:05.795Z,1003.81
2018-11-02T02:56:11.314Z,1003.82
2018-11-02T02:57:16.815Z,1003.89
2018-11-02T02:58:22.331Z,1003.91
2018-11-02T02:59:27.853Z,1003.91
2018-11-02T03:00:33.353Z,1003.95
2018-11-02T03:01:38.871Z,1003.98
2018-11-02T03:02:44.376Z,1003.98
2018-11-02T03:03:49.884Z,1003.99
2018-11-02T03:04:55.401Z,1004.02
2018-11-02T03:06:00.948Z,1004.08
2018-11-02T03:07:06.419Z,1004.08
2018-11-02T03:08:11.929Z,1004.08
2018-11-02T03:09:17.443Z,1004.18
2018-11-02T03:10:23.004Z,1004.17
2018-11-02T03:11:28.463Z,1004.21
2018-11-02T03:12:33.983Z,1004.26
2018-11-02T03:13:39.481Z,1004.28
2018-11-02T03:14:44.996Z,1004.27
2018-11-02T03:15:50.507Z,1004.30
2018-11-02T03:16:56.024Z,1004.34
2018-11-02T03:18:01.532Z,1004.34
2018-11-02T03:19:07.045Z,1004.35
2018-11-02T03:20:12.550Z,1004.38
2018-11-02T03:21:18.062Z,1004.30
2018-11-02T03:22:23.635Z,1004.35
2018-11-02T03:23:29.087Z,1004.39
2018-11-02T03:24:34.601Z,1004.34
2018-11-02T03:25:40.108Z,1004.31
2018-11-02T03:26:45.618Z,1004.38
2018-11-02T03:27:51.126Z,1004.36
2018-11-02T03:28:56.638Z,1004.38
2018-11-02T03:30:02.154Z,1004.37
2018-11-02T03:31:07.659Z,1004.36
2018-11-02T03:32:13.180Z,1004.41
2018-11-02T03:33:18.688Z,1004.42
2018-11-02T03:34:24.194Z,1004.44
2018-11-02T03:35:29.739Z,1004.45
2018-11-02T03:36:35.215Z,1004.47
2018-11-02T03:37:40.725Z,1004.52
2018-11-02T03:38:46.237Z,1004.51
2018-11-02T03:39:51.749Z,1004.51
2018-11-02T03:40:57.264Z,1004.48
2018-11-02T03:42:02.771Z,1004.52
2018-11-02T03:43:08.287Z,1004.46
2018-11-02T03:44:13.792Z,1004.47
2018-11-02T03:45:19.313Z,1004.50
2018-11-02T03:46:24.811Z,1004.54
2018-11-02T03:47:30.324Z,1004.48
2018-11-02T03:48:35.837Z,1004.62
2018-11-02T03:49:41.373Z,1004.62
2018-11-02T03:50:46.857Z,1004.68
2018-11-02T03:51:52.368Z,1004.68
2018-11-02T03:52:57.880Z,1004.74
2018-11-02T03:54:03.396Z,1004.78
2018-11-02T03:55:08.906Z,1004.79
2018-11-02T03:56:14.538Z,1004.81
2018-11-02T03:57:19.922Z,1004.88
2018-11-02T03:58:25.454Z,1004.93
2018-11-02T03:59:30.950Z,1004.92
2018-11-02T04:00:36.456Z,1004.93
2018-11-02T04:01:41.965Z,1004.98
2018-11-02T04:02:47.483Z,1005.07
2018-11-02T04:03:52.996Z,1005.07
2018-11-02T04:04:58.500Z,1005.15
2018-11-02T04:06:04.014Z,1005.14
2018-11-02T04:07:09.524Z,1005.10
2018-11-02T04:08:15.038Z,1005.12
2018-11-02T04:09:20.557Z,1005.16
2018-11-02T04:10:26.054Z,1005.16
2018-11-02T04:11:31.567Z,1005.14
2018-11-02T04:12:37.078Z,1005.10
2018-11-02T04:13:42.589Z,1005.17
2018-11-02T04:14:48.103Z,1005.15
2018-11-02T04:15:53.607Z,1005.09
2018-11-02T04:16:59.123Z,1005.18
2018-11-02T04:18:04.630Z,1005.19
2018-11-02T04:19:10.147Z,1005.20
2018-11-02T04:20:15.648Z,1005.25
2018-11-02T04:21:21.196Z,1005.22
2018-11-02T04:22:26.689Z,1005.26
2018-11-02T04:23:32.195Z,1005.28
2018-11-02T04:24:37.695Z,1005.25
2018-11-02T04:25:43.210Z,1005.29
2018-11-02T04:26:48.721Z,1005.29
2018-11-02T04:27:54.229Z,1005.32
2018-11-02T04:28:59.749Z,1005.38
2018-11-02T04:30:05.252Z,1005.38
2018-11-02T04:31:10.808Z,1005.42
2018-11-02T04:32:16.275Z,1005.44
2018-11-02T04:33:21.784Z,1005.49
2018-11-02T04:34:27.295Z,1005.52
2018-11-02T04:35:32.819Z,1005.61
2018-11-02T04:36:38.313Z,1005.60
2018-11-02T04:37:43.828Z,1005.62
2018-11-02T04:38:49.346Z,1005.66
2018-11-02T04:39:54.848Z,1005.69
2018-11-02T04:41:00.366Z,1005.67
2018-11-02T04:42:05.873Z,1005.68
2018-11-02T04:43:11.380Z,1005.62
2018-11-02T04:44:16.892Z,1005.69
2018-11-02T04:45:22.406Z,1005.78
2018-11-02T04:46:27.915Z,1005.75
2018-11-02T04:47:33.427Z,1005.79
2018-11-02T04:48:38.935Z,1005.73
2018-11-02T04:49:44.446Z,1005.83
2018-11-02T04:50:50.019Z,1005.83
2018-11-02T04:51:55.473Z,1005.85
2018-11-02T04:53:00.983Z,1005.89
2018-11-02T04:54:06.504Z,1005.91
2018-11-02T04:55:12.000Z,1005.94
2018-11-02T04:56:17.528Z,1005.98
2018-11-02T04:57:23.021Z,1006.00
2018-11-02T04:58:28.534Z,1006.08
2018-11-02T04:59:34.046Z,1006.08
2018-11-02T05:00:39.555Z,1006.12
2018-11-02T05:01:45.066Z,1006.08
2018-11-02T05:02:50.582Z,1006.16
2018-11-02T05:03:56.089Z,1006.14
2018-11-02T05:05:01.597Z,1006.19
2018-11-02T05:06:07.117Z,1006.19
2018-11-02T05:07:12.620Z,1006.24
2018-11-02T05:08:18.132Z,1006.22
2018-11-02T05:09:23.641Z,1006.28
2018-11-02T05:10:29.154Z,1006.33
2018-11-02T05:11:34.771Z,1006.35
2018-11-02T05:12:40.181Z,1006.37
2018-11-02T05:13:45.684Z,1006.36
2018-11-02T05:14:51.200Z,1006.42
2018-11-02T05:15:56.704Z,1006.45
2018-11-02T05:17:02.222Z,1006.50
2018-11-02T05:18:07.752Z,1006.56
2018-11-02T05:19:13.244Z,1006.45
2018-11-02T05:20:18.758Z,1006.54
2018-11-02T05:21:24.446Z,1006.60
2018-11-02T05:22:29.768Z,1006.59
2018-11-02T05:23:35.277Z,1006.66
2018-11-02T05:24:40.788Z,1006.64
2018-11-02T05:25:46.301Z,1006.73
2018-11-02T05:26:51.815Z,1006.74
2018-11-02T05:27:57.346Z,1006.77
2018-11-02T05:29:02.843Z,1006.77
2018-11-02T05:30:08.352Z,1006.82
2018-11-02T05:31:13.862Z,1006.81
2018-11-02T05:32:19.367Z,1006.88
2018-11-02T05:33:24.885Z,1006.85
2018-11-02T05:34:30.390Z,1006.92
2018-11-02T05:35:35.908Z,1006.95
2018-11-02T05:36:41.411Z,1007.02
2018-11-02T05:37:46.919Z,1007.09
2018-11-02T05:38:52.428Z,1007.09
2018-11-02T05:39:57.944Z,1007.15
2018-11-02T05:41:03.454Z,1007.08
2018-11-02T05:42:08.991Z,1007.22
2018-11-02T05:43:14.478Z,1007.25
2018-11-02T05:44:19.983Z,1007.28
2018-11-02T05:45:25.505Z,1007.27
2018-11-02T05:46:31.006Z,1007.30
2018-11-02T05:47:36.519Z,1007.32
2018-11-02T05:48:42.037Z,1007.33
2018-11-02T05:49:47.537Z,1007.35
2018-11-02T05:50:53.049Z,1007.45
2018-11-02T05:51:58.552Z,1007.38
2018-11-02T05:53:04.069Z,1007.42
2018-11-02T05:54:09.654Z,1007.49
2018-11-02T05:55:15.089Z,1007.52
2018-11-02T05:56:20.605Z,1007.53
2018-11-02T05:57:26.113Z,1007.59
2018-11-02T05:58:31.635Z,1007.60
2018-11-02T05:59:37.136Z,1007.66
2018-11-02T06:00:42.645Z,1007.64
2018-11-02T06:01:48.159Z,1007.62
2018-11-02T06:02:53.670Z,1007.73
2018-11-02T06:03:59.178Z,1007.67
2018-11-02T06:05:04.687Z,1007.74
2018-11-02T06:06:10.196Z,1007.76
2018-11-02T06:07:15.713Z,1007.75
2018-11-02T06:08:21.220Z,1007.74
2018-11-02T06:09:26.729Z,1007.78
2018-11-02T06:10:32.238Z,1007.74
2018-11-02T06:11:37.750Z,1007.80
2018-11-02T06:12:43.261Z,1007.81
2018-11-02T06:13:48.784Z,1007.83
2018-11-02T06:14:54.294Z,1007.83
2018-11-02T06:15:59.797Z,1007.85
2018-11-02T06:17:05.308Z,1007.80
2018-11-02T06:18:10.814Z,1007.94
2018-11-02T06:19:16.322Z,1007.88
2018-11-02T06:20:21.834Z,1007.93
2018-11-02T06:21:27.367Z,1007.96
2018-11-02T06:22:32.858Z,1007.97
2018-11-02T06:23:38.365Z,1008.02
2018-11-02T06:24:43.875Z,1008.04
2018-11-02T06:25:49.397Z,1008.04
2018-11-02T06:26:54.896Z,1008.09
2018-11-02T06:28:00.409Z,1008.08
2018-11-02T06:29:05.916Z,1008.09
2018-11-02T06:30:11.428Z,1008.14
2018-11-02T06:31:16.949Z,1008.15
2018-11-02T06:32:22.461Z,1008.18
2018-11-02T06:33:27.964Z,1008.21
2018-11-02T06:34:33.470Z,1008.22
2018-11-02T06:35:38.978Z,1008.24
2018-11-02T06:36:44.492Z,1008.30
2018-11-02T06:37:50.004Z,1008.32
2018-11-02T06:38:55.637Z,1008.40
2018-11-02T06:40:01.021Z,1008.40
2018-11-02T06:41:06.536Z,1008.42
2018-11-02T06:42:12.048Z,1008.46
2018-11-02T06:43:17.561Z,1008.52
2018-11-02T06:44:23.064Z,1008.54
2018-11-02T06:45:28.575Z,1008.60
2018-11-02T06:46:34.084Z,1008.62
2018-11-02T06:47:39.606Z,1008.63
2018-11-02T06:48:45.112Z,1008.68
2018-11-02T06:49:50.632Z,1008.73
2018-11-02T06:50:56.232Z,1008.73
2018-11-02T06:52:01.642Z,1008.74
2018-11-02T06:54:12.673Z,1008.80
2018-11-02T06:55:18.186Z,1008.81
2018-11-02T06:56:23.690Z,1008.85
2018-11-02T06:57:29.277Z,1008.85
2018-11-02T06:58:34.723Z,1008.85
2018-11-02T06:59:40.548Z,1008.86
2018-11-02T07:00:46.753Z,1008.89
2018-11-02T07:01:51.259Z,1008.89
2018-11-02T07:02:56.763Z,1008.94
2018-11-02T07:04:02.275Z,1008.91
2018-11-02T07:05:07.781Z,1008.97
2018-11-02T07:06:13.287Z,1009.02
2018-11-02T07:07:19.870Z,1009.02
2018-11-02T07:08:24.401Z,1009.03
2018-11-02T07:09:29.821Z,1009.06
2018-11-02T07:10:35.331Z,1009.10
2018-11-02T07:11:40.845Z,1009.11
2018-11-02T07:12:46.365Z,1009.15
2018-11-02T07:13:52.889Z,1009.17
2018-11-02T07:14:57.370Z,1009.17
2018-11-02T07:16:02.901Z,1009.18
2018-11-02T07:17:08.400Z,1009.23
2018-11-02T07:18:13.901Z,1009.24
2018-11-02T07:19:19.430Z,1009.25
2018-11-02T07:20:25.943Z,1009.29
2018-11-02T07:21:30.436Z,1009.28
2018-11-02T07:22:35.940Z,1009.34
2018-11-02T07:23:41.467Z,1009.34
2018-11-02T07:24:46.974Z,1009.41
2018-11-02T07:25:52.487Z,1009.42
2018-11-02T07:26:58.997Z,1009.43
2018-11-02T07:28:03.497Z,1009.45
2018-11-02T07:29:09.008Z,1009.41
2018-11-02T07:30:14.525Z,1009.46
2018-11-02T07:31:20.027Z,1009.42
2018-11-02T07:32:25.544Z,1009.50
2018-11-02T07:33:32.061Z,1009.46
2018-11-02T07:34:36.641Z,1009.49
2018-11-02T07:35:42.079Z,1009.50
2018-11-02T07:36:47.582Z,1009.48
2018-11-02T07:37:53.096Z,1009.48
2018-11-02T07:38:58.606Z,1009.50
2018-11-02T07:40:05.133Z,1009.54
2018-11-02T07:41:09.648Z,1009.58
2018-11-02T07:42:15.283Z,1009.57
2018-11-02T07:43:20.668Z,1009.60
2018-11-02T07:44:26.153Z,1009.56
2018-11-02T07:45:31.685Z,1009.59
2018-11-02T07:46:38.186Z,1009.60
2018-11-02T07:47:42.799Z,1009.59
2018-11-02T07:48:48.218Z,1009.61
2018-11-02T07:49:53.724Z,1009.60
2018-11-02T07:50:59.229Z,1009.64
2018-11-02T07:52:04.737Z,1009.61
2018-11-02T07:53:11.265Z,1009.69
2018-11-02T07:54:15.760Z,1009.69
2018-11-02T07:55:21.269Z,1009.68
2018-11-02T07:56:26.781Z,1009.70
2018-11-02T07:57:32.284Z,1009.74
2018-11-02T07:58:37.800Z,1009.75
2018-11-02T07:59:44.313Z,1009.79
2018-11-02T08:00:48.825Z,1009.81
2018-11-02T08:01:54.456Z,1009.83
2018-11-02T08:02:59.836Z,1009.85
2018-11-02T08:04:05.602Z,1009.86
2018-11-02T08:05:10.857Z,1009.86
2018-11-02T08:06:17.376Z,1009.85
2018-11-02T08:07:21.881Z,1009.90
2018-11-02T08:08:27.393Z,1009.90
2018-11-02T08:09:32.912Z,1009.89
2018-11-02T08:10:38.410Z,1009.92
2018-11-02T08:11:44.065Z,1009.96
2018-11-02T08:12:50.451Z,1009.93
2018-11-02T08:13:54.939Z,1009.95
2018-11-02T08:15:00.456Z,1009.98
2018-11-02T08:16:05.966Z,1009.96
2018-11-02T08:17:11.465Z,1009.99
2018-11-02T08:18:16.990Z,1009.99
2018-11-02T08:19:23.499Z,1009.95
2018-11-02T08:20:28.001Z,1009.97
2018-11-02T08:21:33.521Z,1009.97
2018-11-02T08:22:39.024Z,1010.03
2018-11-02T08:23:44.538Z,1010.02
2018-11-02T08:24:50.056Z,1010.03
2018-11-02T08:25:56.574Z,1010.04
2018-11-02T08:27:01.067Z,1010.03
2018-11-02T08:28:06.571Z,1010.06
2018-11-02T08:29:12.085Z,1010.04
2018-11-02T08:30:17.598Z,1010.09
2018-11-02T08:31:23.118Z,1010.10
2018-11-02T08:32:29.637Z,1010.16
2018-11-02T08:33:34.161Z,1010.13
2018-11-02T08:34:39.639Z,1010.15
2018-11-02T08:35:45.151Z,1010.18
2018-11-02T08:36:50.656Z,1010.19
2018-11-02T08:37:56.178Z,1010.19
2018-11-02T08:39:02.700Z,1010.18
2018-11-02T08:40:07.196Z,1010.15
2018-11-02T08:41:12.721Z,1010.15
2018-11-02T08:42:18.219Z,1010.14
2018-11-02T08:43:23.731Z,1010.19
2018-11-02T08:44:29.242Z,1010.16
2018-11-02T08:45:35.761Z,1010.18
2018-11-02T08:46:40.375Z,1010.23
2018-11-02T08:47:45.772Z,1010.23
2018-11-02T08:48:51.292Z,1010.16
2018-11-02T08:49:56.825Z,1010.26
2018-11-02T08:51:02.306Z,1010.25
2018-11-02T08:52:08.852Z,1010.24
2018-11-02T08:53:13.345Z,1010.28
2018-11-02T08:54:18.839Z,1010.22
2018-11-02T08:55:24.355Z,1010.21
2018-11-02T08:56:29.869Z,1010.23
2018-11-02T08:57:35.446Z,1010.25
2018-11-02T08:58:42.057Z,1010.26
2018-11-02T08:59:46.428Z,1010.29
2018-11-02T09:00:51.919Z,1010.31
2018-11-02T09:01:57.412Z,1010.37
2018-11-02T09:03:02.932Z,1010.33
2018-11-02T09:04:08.436Z,1010.34
2018-11-02T09:05:15.075Z,1010.35
2018-11-02T09:06:19.452Z,1010.38
2018-11-02T09:07:24.993Z,1010.36
2018-11-02T09:08:30.485Z,1010.38
2018-11-02T09:09:35.998Z,1010.36
2018-11-02T09:10:41.503Z,1010.42
2018-11-02T09:11:48.033Z,1010.47
2018-11-02T09:12:52.531Z,1010.50
2018-11-02T09:13:58.048Z,1010.44
2018-11-02T09:15:03.561Z,1010.52
2018-11-02T09:16:09.076Z,1010.48
2018-11-02T09:17:14.594Z,1010.47
2018-11-02T09:18:21.108Z,1010.53
2018-11-02T09:19:25.704Z,1010.51
2018-11-02T09:20:31.118Z,1010.51
2018-11-02T09:21:36.622Z,1010.52
2018-11-02T09:22:42.127Z,1010.56
2018-11-02T09:23:47.634Z,1010.60
2018-11-02T09:24:54.156Z,1010.63
2018-11-02T09:25:58.669Z,1010.67
2018-11-02T09:27:04.250Z,1010.66
2018-11-02T09:28:09.801Z,1010.67
2018-11-02T09:29:15.206Z,1010.74
2018-11-02T09:30:20.726Z,1010.78
2018-11-02T09:31:27.220Z,1010.81
2018-11-02T09:32:31.726Z,1010.82
2018-11-02T09:33:37.258Z,1010.88
2018-11-02T09:34:42.741Z,1010.89
2018-11-02T09:35:48.260Z,1010.92
2018-11-02T09:36:53.774Z,1010.94
2018-11-02T09:38:00.294Z,1011.00
2018-11-02T09:39:04.789Z,1010.96
2018-11-02T09:40:10.373Z,1010.97
2018-11-02T09:41:15.815Z,1011.04
2018-11-02T09:42:21.334Z,1011.01
2018-11-02T09:43:26.841Z,1011.14
2018-11-02T09:44:33.367Z,1011.16
2018-11-02T09:45:37.865Z,1011.13
2018-11-02T09:46:43.386Z,1011.14
2018-11-02T09:47:48.895Z,1011.19
2018-11-02T09:48:54.408Z,1011.22
2018-11-02T09:49:59.911Z,1011.29
2018-11-02T09:51:06.428Z,1011.29
2018-11-02T09:52:11.013Z,1011.31
2018-11-02T09:53:16.441Z,1011.35
2018-11-02T09:54:21.952Z,1011.31
2018-11-02T09:55:27.472Z,1011.33
2018-11-02T09:56:32.994Z,1011.33
2018-11-02T09:57:39.568Z,1011.35
2018-11-02T09:58:44.008Z,1011.39
2018-11-02T09:59:49.509Z,1011.39
2018-11-02T10:00:55.121Z,1011.41
2018-11-02T10:02:00.644Z,1011.42
2018-11-02T10:03:06.051Z,1011.41
2018-11-02T10:04:12.565Z,1011.45
2018-11-02T10:05:17.076Z,1011.49
2018-11-02T10:06:22.593Z,1011.49
2018-11-02T10:07:28.089Z,1011.54
2018-11-02T10:08:33.606Z,1011.53
2018-11-02T10:09:39.115Z,1011.55
2018-11-02T10:10:45.630Z,1011.59
2018-11-02T10:11:50.128Z,1011.60
2018-11-02T10:12:55.647Z,1011.58
2018-11-02T10:14:01.165Z,1011.61
2018-11-02T10:15:06.665Z,1011.66
2018-11-02T10:16:12.177Z,1011.61
2018-11-02T10:17:18.708Z,1011.59
2018-11-02T10:18:23.215Z,1011.61
2018-11-02T10:19:28.715Z,1011.63
2018-11-02T10:20:34.232Z,1011.58
2018-11-02T10:21:39.740Z,1011.61
2018-11-02T10:22:45.241Z,1011.65
2018-11-02T10:23:51.807Z,1011.65
2018-11-02T10:24:56.277Z,1011.71
2018-11-02T10:26:01.799Z,1011.75
2018-11-02T10:27:07.291Z,1011.77
2018-11-02T10:28:12.921Z,1011.75
2018-11-02T10:29:18.316Z,1011.79
2018-11-02T10:30:24.834Z,1011.79
2018-11-02T10:31:29.338Z,1011.72
2018-11-02T10:32:34.854Z,1011.79
2018-11-02T10:33:40.363Z,1011.79
2018-11-02T10:34:45.884Z,1011.76
2018-11-02T10:35:51.395Z,1011.84
2018-11-02T10:36:57.918Z,1011.78
2018-11-02T10:38:02.407Z,1011.79
2018-11-02T10:39:07.928Z,1011.81
2018-11-02T10:40:13.466Z,1011.82
2018-11-02T10:41:18.947Z,1011.83
2018-11-02T10:42:24.463Z,1011.85
2018-11-02T10:43:30.999Z,1011.89
2018-11-02T10:44:35.550Z,1011.91
2018-11-02T10:45:40.991Z,1011.90
2018-11-02T10:46:46.505Z,1011.91
2018-11-02T10:47:52.055Z,1011.95
2018-11-02T10:48:57.543Z,1011.98
2018-11-02T10:50:04.049Z,1011.95
2018-11-02T10:51:08.618Z,1012.00
2018-11-02T10:52:14.064Z,1012.02
2018-11-02T10:53:19.572Z,1012.01
2018-11-02T10:54:25.116Z,1012.01
2018-11-02T10:55:30.594Z,1012.02
2018-11-02T10:56:37.205Z,1012.04
2018-11-02T10:57:41.621Z,1012.03
2018-11-02T10:58:47.135Z,1012.05
2018-11-02T10:59:52.646Z,1012.00
2018-11-02T11:00:58.273Z,1012.05
2018-11-02T11:02:03.673Z,1012.03
2018-11-02T11:03:10.186Z,1012.00
2018-11-02T11:04:14.695Z,1012.05
2018-11-02T11:05:20.262Z,1012.01
2018-11-02T11:06:25.717Z,1012.05
2018-11-02T11:07:31.230Z,1012.04
2018-11-02T11:08:36.752Z,1012.06
2018-11-02T11:09:43.257Z,1012.09
2018-11-02T11:10:47.757Z,1012.12
2018-11-02T11:11:53.385Z,1012.14
2018-11-02T11:12:59.095Z,1012.10
2018-11-02T11:14:04.326Z,1012.13
2018-11-02T11:15:09.808Z,1012.15
2018-11-02T11:16:16.338Z,1012.16
2018-11-02T11:17:20.827Z,1012.15
2018-11-02T11:18:26.361Z,1012.17
2018-11-02T11:19:31.857Z,1012.16
2018-11-02T11:20:37.372Z,1012.15
2018-11-02T11:21:42.883Z,1012.15
2018-11-02T11:22:49.409Z,1012.22
2018-11-02T11:23:53.902Z,1012.20
2018-11-02T11:24:59.410Z,1012.23
2018-11-02T11:26:04.918Z,1012.22
2018-11-02T11:27:10.438Z,1012.22
2018-11-02T11:28:15.956Z,1012.24
2018-11-02T11:29:22.541Z,1012.24
2018-11-02T11:30:26.977Z,1012.18
2018-11-02T11:31:32.506Z,1012.20
2018-11-02T11:32:38.007Z,1012.21
2018-11-02T11:33:43.503Z,1012.22
2018-11-02T11:34:49.028Z,1012.26
2018-11-02T11:35:55.571Z,1012.27
2018-11-02T11:37:00.043Z,1012.27
2018-11-02T11:38:05.555Z,1012.34
2018-11-02T11:39:11.093Z,1012.35
2018-11-02T11:40:16.586Z,1012.35
2018-11-02T11:41:22.094Z,1012.29
2018-11-02T11:42:28.625Z,1012.31
2018-11-02T11:43:33.116Z,1012.34
2018-11-02T11:44:38.629Z,1012.32
2018-11-02T11:45:44.143Z,1012.33
2018-11-02T11:46:49.663Z,1012.33
2018-11-02T11:47:55.185Z,1012.35
2018-11-02T11:49:01.904Z,1012.32
2018-11-02T11:50:06.198Z,1012.33
2018-11-02T11:51:11.702Z,1012.34
2018-11-02T11:52:17.229Z,1012.31
2018-11-02T11:53:22.746Z,1012.33
2018-11-02T11:54:28.305Z,1012.34
2018-11-02T11:55:34.778Z,1012.36
2018-11-02T11:56:39.282Z,1012.33
2018-11-02T11:57:44.803Z,1012.32
2018-11-02T11:58:50.335Z,1012.35
2018-11-02T11:59:55.808Z,1012.33
2018-11-02T12:01:01.314Z,1012.36
2018-11-02T12:02:07.873Z,1012.38
2018-11-02T12:03:12.361Z,1012.37
2018-11-02T12:04:17.894Z,1012.38
2018-11-02T12:05:23.367Z,1012.43
2018-11-02T12:06:28.890Z,1012.47
2018-11-02T12:07:34.460Z,1012.48
2018-11-02T12:08:40.914Z,1012.51
2018-11-02T12:09:45.417Z,1012.55
2018-11-02T12:10:50.976Z,1012.55
2018-11-02T12:11:56.464Z,1012.54
2018-11-02T12:13:01.963Z,1012.53
2018-11-02T12:14:07.475Z,1012.61
2018-11-02T12:15:14.008Z,1012.54
2018-11-02T12:16:18.508Z,1012.55
2018-11-02T12:17:24.006Z,1012.56
2018-11-02T12:18:29.519Z,1012.58
2018-11-02T12:19:35.042Z,1012.59
2018-11-02T12:20:40.543Z,1012.56
2018-11-02T12:21:47.123Z,1012.61
2018-11-02T12:22:51.577Z,1012.57
2018-11-02T12:23:57.103Z,1012.59
2018-11-02T12:25:02.828Z,1012.62
2018-11-02T12:26:08.117Z,1012.62
2018-11-02T12:27:13.631Z,1012.64
2018-11-02T12:28:20.189Z,1012.71
2018-11-02T12:29:24.650Z,1012.67
2018-11-02T12:30:30.170Z,1012.68
2018-11-02T12:31:35.680Z,1012.72
2018-11-02T12:32:41.184Z,1012.66
2018-11-02T12:33:46.703Z,1012.69
2018-11-02T12:34:53.239Z,1012.69
2018-11-02T12:35:57.739Z,1012.72
2018-11-02T12:37:03.335Z,1012.74
2018-11-02T12:38:08.765Z,1012.73
2018-11-02T12:39:14.267Z,1012.76
2018-11-02T12:40:19.797Z,1012.72
2018-11-02T12:41:26.303Z,1012.71
2018-11-02T12:42:30.807Z,1012.72
2018-11-02T12:43:36.412Z,1012.73
2018-11-02T12:44:41.843Z,1012.75
2018-11-02T12:45:47.345Z,1012.72
2018-11-02T12:46:52.857Z,1012.76
2018-11-02T12:47:59.449Z,1012.78
2018-11-02T12:49:04.156Z,1012.72
2018-11-02T12:50:09.481Z,1012.68
2018-11-02T12:51:14.941Z,1012.67
2018-11-02T12:52:20.425Z,1012.70
2018-11-02T12:53:25.932Z,1012.74
2018-11-02T12:54:32.475Z,1012.73
2018-11-02T12:55:36.962Z,1012.82
2018-11-02T12:56:42.493Z,1012.81
2018-11-02T12:57:47.992Z,1012.75
2018-11-02T12:58:53.514Z,1012.77
2018-11-02T12:59:59.014Z,1012.90
2018-11-02T13:01:05.536Z,1012.86
2018-11-02T13:02:10.065Z,1012.84
2018-11-02T13:03:15.555Z,1012.83
2018-11-02T13:04:21.065Z,1012.88
2018-11-02T13:05:26.592Z,1012.84
2018-11-02T13:06:32.100Z,1012.85
2018-11-02T13:07:38.614Z,1012.89
2018-11-02T13:08:43.123Z,1012.85
2018-11-02T13:09:48.641Z,1012.84
2018-11-02T13:10:54.163Z,1012.86
2018-11-02T13:11:59.654Z,1012.82
2018-11-02T13:13:05.174Z,1012.82